Quakertown, PA

10:23 AM EST on January 24, 2017 (GMT -0500)
Quakertown | | Change Station
Active Advisory: Small Craft Advisory

Elev 525 ft 40.43 °N, 75.38 °W | Updated 8 minutes ago

Overcast
Overcast
37 °F
Feels Like 31 °F
N
9
Wind Variable Wind from NNW

Today
High -- | Low -- °F
--% Chance of Precip.
Yesterday
High -- | Low -- °F
Precip. -- in
Pressure 29.45 in
Visibility 1.8 miles
Clouds Mostly Cloudy 800 ft
Overcast 1400 ft
Windchill 31 °F
Dew Point 37 °F
Humidity 100%
Rainfall 0.37 in
Snow Depth Not available.
7:17 AM 5:10 PM
Waning Crescent, 11% visible
METAR KUKT 241515Z AUTO 34008KT 1 3/4SM BKN008 OVC014 03/03 A2945 RMK AO1
Pressure 29.45 in
Visibility 1.8 miles
Clouds Mostly Cloudy 800 ft
Overcast 1400 ft
Windchill 31 °F
Dew Point 37 °F
Humidity 100%
Rainfall 0.37 in
Snow Depth Not available.
7:17 AM 5:10 PM
Waning Crescent, 11% visible
METAR KUKT 241515Z AUTO 34008KT 1 3/4SM BKN008 OVC014 03/03 A2945 RMK AO1

Get Your Daily Forecast Email!

Thanks for signing up!

Be on the lookout for a verification email in your inbox.

You'll start receiving the daily forecast at 8 AM.

×

10-Day Weather Forecast

Almanac

Astronomy

Jan. 24, 2017 Rise Set
Actual Time
Civil Twilight
Nautical Twilight
Astronomical Twilight
Moon
Length of Visible Light
Length of Day
Tomorrow will be .
, % of the Moon is Illuminated

Today's Extremes

State Highs State Lows

Community

WunderPhotos

Upload Photos

1,962,540 photos uploaded!

WunderBlog® & News

Nearby

Air Quality

  Air Quality AQ Index Pollutant
Not available.

Snow Depth

Station Depth Elevation

Earthquake Activity

City Distance Mag. Time & Date
Minimum magnitude displayed is 2.5.

Coastal Water Temperatures

Place Temperature

Stations

Nearby Weather Stations

Station Location Temp. Windchill Dew Point Humidity Wind Precip. Elev Updated Type
                   

Watches & Warnings

Small Craft Advisory
Issued: 9:42 AM EST Jan. 24, 2017 – National Weather Service

... Small Craft Advisory remains in effect until 1 am EST
Wednesday...

* winds... northwest 15 to 20 kt with gusts up to 30 kt.

* Seas... 1 to 3 feet.

* Location... upper Delaware Bay.

Precautionary/preparedness actions...

A Small Craft Advisory means that wind speeds of 25 to 33 knots
are expected to produce hazardous wave conditions to small craft.
Inexperienced mariners... especially those operating smaller
vessels should avoid navigating in these conditions.